createdAt,value
2018-01-08T00:01:36.078Z,25.40
2018-01-08T00:04:06.564Z,25.40
2018-01-08T00:06:48.288Z,25.40
2018-01-08T00:09:18.794Z,25.40
2018-01-08T00:11:48.538Z,25.40
2018-01-08T00:14:19.380Z,25.50
2018-01-08T00:16:49.133Z,25.50
2018-01-08T00:19:18.850Z,25.60
2018-01-08T00:21:48.616Z,25.60
2018-01-08T00:24:18.347Z,25.60
2018-01-08T00:26:48.087Z,25.70
2018-01-08T00:29:17.813Z,25.70
2018-01-08T00:31:47.576Z,25.80
2018-01-08T00:34:17.308Z,25.80
2018-01-08T00:36:47.371Z,25.90
2018-01-08T00:39:17.855Z,26.00
2018-01-08T00:41:47.584Z,26.00
2018-01-08T00:44:17.330Z,26.10
2018-01-08T00:46:47.051Z,26.20
2018-01-08T00:49:16.819Z,26.30
2018-01-08T00:51:46.579Z,26.30
2018-01-08T00:54:16.326Z,26.40
2018-01-08T00:56:46.085Z,26.50
2018-01-08T00:59:15.866Z,26.50
2018-01-08T01:01:45.618Z,26.60
2018-01-08T01:04:15.427Z,26.60
2018-01-08T01:06:45.194Z,26.60
2018-01-08T01:09:14.948Z,26.60
2018-01-08T01:11:44.750Z,26.60
2018-01-08T01:14:14.544Z,26.70
2018-01-08T01:16:45.440Z,26.70
2018-01-08T01:19:15.179Z,26.80
2018-01-08T01:21:44.931Z,26.80
2018-01-08T01:24:14.664Z,26.90
2018-01-08T01:26:44.408Z,26.90
2018-01-08T01:29:14.156Z,26.90
2018-01-08T01:31:45.099Z,27.00
2018-01-08T01:34:14.855Z,27.00
2018-01-08T01:36:44.602Z,27.10
2018-01-08T01:39:14.349Z,27.20
2018-01-08T01:41:44.119Z,27.20
2018-01-08T01:44:14.623Z,27.30
2018-01-08T01:46:44.711Z,27.30
2018-01-08T01:49:23.047Z,27.30
2018-01-08T01:51:52.758Z,27.40
2018-01-08T01:54:22.539Z,27.50
2018-01-08T01:56:52.422Z,27.60
2018-01-08T01:59:22.164Z,27.70
2018-01-08T02:01:53.502Z,27.70
2018-01-08T02:04:23.256Z,27.70
2018-01-08T02:06:52.991Z,27.70
2018-01-08T02:09:23.491Z,27.70
2018-01-08T02:11:53.271Z,27.70
2018-01-08T02:14:22.986Z,27.60
2018-01-08T02:16:52.727Z,27.50
2018-01-08T02:19:22.673Z,27.50
2018-01-08T02:21:52.407Z,27.40
2018-01-08T02:24:22.170Z,27.40
2018-01-08T02:26:52.658Z,27.50
2018-01-08T02:29:22.677Z,27.50
2018-01-08T02:31:53.131Z,27.60
2018-01-08T02:34:24.842Z,27.70
2018-01-08T02:36:54.620Z,27.70
2018-01-08T02:39:25.148Z,27.70
2018-01-08T02:41:55.660Z,27.70
2018-01-08T02:44:30.901Z,27.70
2018-01-08T02:47:00.987Z,27.60
2018-01-08T02:49:30.714Z,27.60
2018-01-08T02:52:00.547Z,27.60
2018-01-08T02:54:33.018Z,27.50
2018-01-08T02:57:02.801Z,27.50
2018-01-08T02:59:32.574Z,27.50
2018-01-08T03:02:02.392Z,27.50
2018-01-08T03:04:32.164Z,27.50
2018-01-08T03:07:02.051Z,27.50
2018-01-08T03:09:32.034Z,27.50
2018-01-08T03:12:02.680Z,27.40
2018-01-08T03:14:32.424Z,27.40
2018-01-08T03:17:02.315Z,27.50
2018-01-08T03:19:32.095Z,27.60
2018-01-08T03:22:01.918Z,27.60
2018-01-08T03:24:31.639Z,27.60
2018-01-08T03:27:01.999Z,27.60
2018-01-08T03:29:31.715Z,27.60
2018-01-08T03:32:01.474Z,27.60
2018-01-08T03:34:31.202Z,27.50
2018-01-08T03:37:01.242Z,27.50
2018-01-08T03:39:31.008Z,27.50
2018-01-08T03:42:01.527Z,27.60
2018-01-08T03:44:31.265Z,27.60
2018-01-08T03:47:01.183Z,27.60
2018-01-08T03:49:30.902Z,27.60
2018-01-08T03:52:00.670Z,27.60
2018-01-08T03:54:30.738Z,27.70
2018-01-08T03:57:00.467Z,27.70
2018-01-08T03:59:30.221Z,27.80
2018-01-08T04:01:59.963Z,27.80
2018-01-08T04:04:29.698Z,27.90
2018-01-08T04:06:59.480Z,27.90
2018-01-08T04:09:29.201Z,28.00
2018-01-08T04:11:58.972Z,28.10
2018-01-08T04:14:28.693Z,28.20
2018-01-08T04:16:59.115Z,28.30
2018-01-08T04:19:28.879Z,28.30
2018-01-08T04:21:58.647Z,28.40
2018-01-08T04:24:28.738Z,28.50
2018-01-08T04:26:58.479Z,28.60
2018-01-08T04:29:28.219Z,28.60
2018-01-08T04:31:58.475Z,28.70
2018-01-08T04:34:28.246Z,28.70
2018-01-08T04:36:57.988Z,28.80
2018-01-08T04:39:28.491Z,29.00
2018-01-08T04:41:58.225Z,29.00
2018-01-08T04:44:29.675Z,29.20
2018-01-08T04:47:00.223Z,29.30
2018-01-08T04:49:29.938Z,29.30
2018-01-08T04:51:59.703Z,29.40
2018-01-08T04:54:29.439Z,29.40
2018-01-08T04:57:00.887Z,29.40
2018-01-08T04:59:31.374Z,29.40
2018-01-08T05:02:01.823Z,29.30
2018-01-08T05:04:31.562Z,29.40
2018-01-08T05:07:01.323Z,29.40
2018-01-08T05:09:31.023Z,29.50
2018-01-08T05:12:00.743Z,29.50
2018-01-08T05:14:30.467Z,29.60
2018-01-08T05:17:00.178Z,29.70
2018-01-08T05:19:29.919Z,29.80
2018-01-08T05:22:01.851Z,29.90
2018-01-08T05:24:31.632Z,29.90
2018-01-08T05:27:01.351Z,29.90
2018-01-08T05:29:31.086Z,30.00
2018-01-08T05:32:00.811Z,30.10
2018-01-08T05:34:31.311Z,30.40
2018-01-08T05:37:01.029Z,30.30
2018-01-08T05:39:30.808Z,30.40
2018-01-08T05:42:00.531Z,30.50
2018-01-08T05:44:30.268Z,30.50
2018-01-08T05:47:00.963Z,30.50
2018-01-08T05:49:31.559Z,30.60
2018-01-08T05:52:01.324Z,30.60
2018-01-08T05:54:31.038Z,30.60
2018-01-08T05:57:00.779Z,30.60
2018-01-08T05:59:31.284Z,30.50
2018-01-08T06:02:01.044Z,30.50
2018-01-08T06:04:30.786Z,30.50
2018-01-08T06:07:00.555Z,30.50
2018-01-08T06:09:30.327Z,30.40
2018-01-08T06:12:00.084Z,30.30
2018-01-08T06:14:29.868Z,30.30
2018-01-08T06:17:00.642Z,30.50
2018-01-08T06:19:31.912Z,30.50
2018-01-08T06:22:02.016Z,30.50
2018-01-08T06:24:31.726Z,30.60
2018-01-08T06:27:01.599Z,30.50
2018-01-08T06:29:32.722Z,30.40
2018-01-08T06:32:03.257Z,30.30
2018-01-08T06:34:33.767Z,30.30
2018-01-08T06:37:03.516Z,30.30
2018-01-08T06:39:33.263Z,30.30
2018-01-08T06:42:03.026Z,30.40
2018-01-08T06:44:33.523Z,30.60
2018-01-08T06:47:03.263Z,30.60
2018-01-08T06:49:34.500Z,30.70
2018-01-08T06:52:05.024Z,30.80
2018-01-08T06:54:35.523Z,30.80
2018-01-08T06:57:05.265Z,30.80
2018-01-08T06:59:36.087Z,30.90
2018-01-08T07:02:05.795Z,30.90
2018-01-08T07:04:35.541Z,30.90
2018-01-08T07:07:05.556Z,30.90
2018-01-08T07:09:35.303Z,30.90
2018-01-08T07:12:06.241Z,30.90
2018-01-08T07:14:35.972Z,30.90
2018-01-08T07:17:05.728Z,30.90
2018-01-08T07:19:35.521Z,30.90
2018-01-08T07:22:06.035Z,31.00
2018-01-08T07:24:35.782Z,31.00
2018-01-08T07:27:05.850Z,31.10
2018-01-08T07:29:35.992Z,31.10
2018-01-08T07:32:05.714Z,31.10
2018-01-08T07:34:36.324Z,31.10
2018-01-08T07:37:06.033Z,31.10
2018-01-08T07:39:35.883Z,31.10
2018-01-08T07:42:05.611Z,31.00
2018-01-08T07:44:35.331Z,31.00
2018-01-08T07:47:06.252Z,31.00
2018-01-08T07:49:35.998Z,31.00
2018-01-08T07:52:05.742Z,31.00
2018-01-08T07:54:36.297Z,30.90
2018-01-08T07:57:06.039Z,30.90
2018-01-08T07:59:36.115Z,30.80
2018-01-08T08:02:05.836Z,30.70
2018-01-08T08:04:36.241Z,30.60
2018-01-08T08:07:06.752Z,30.50
2018-01-08T08:09:37.132Z,30.50
2018-01-08T08:12:06.943Z,30.60
2018-01-08T08:14:36.659Z,30.60
2018-01-08T08:17:06.411Z,30.50
2018-01-08T08:19:36.129Z,30.50
2018-01-08T08:22:06.759Z,30.40
2018-01-08T08:24:37.248Z,30.40
2018-01-08T08:27:06.991Z,30.40
2018-01-08T08:29:36.729Z,30.40
2018-01-08T08:32:06.460Z,30.40
2018-01-08T08:34:36.210Z,30.40
2018-01-08T08:37:05.949Z,30.50
2018-01-08T08:39:36.489Z,30.60
2018-01-08T08:42:06.289Z,30.60
2018-01-08T08:44:38.415Z,30.80
2018-01-08T08:47:08.158Z,30.80
2018-01-08T08:49:39.417Z,30.80
2018-01-08T08:52:09.171Z,30.80
2018-01-08T08:54:38.912Z,30.80
2018-01-08T08:57:08.963Z,30.80
2018-01-08T08:59:39.119Z,30.70
2018-01-08T09:02:08.878Z,30.70
2018-01-08T09:04:39.388Z,30.60
2018-01-08T09:07:09.272Z,30.60
2018-01-08T09:09:38.979Z,30.50
2018-01-08T09:12:08.907Z,30.40
2018-01-08T09:14:38.628Z,30.50
2018-01-08T09:17:08.403Z,30.40
2018-01-08T09:19:38.182Z,30.40
2018-01-08T09:22:09.159Z,30.40
2018-01-08T09:24:38.889Z,30.40
2018-01-08T09:27:09.392Z,30.40
2018-01-08T09:29:39.140Z,30.40
2018-01-08T09:32:08.889Z,30.40
2018-01-08T09:34:38.632Z,29.50
2018-01-08T09:37:08.498Z,30.20
2018-01-08T09:39:39.003Z,30.10
2018-01-08T09:42:08.780Z,30.10
2018-01-08T09:44:38.753Z,30.00
2018-01-08T09:47:09.246Z,29.90
2018-01-08T09:49:39.283Z,29.90
2018-01-08T09:52:09.278Z,29.90
2018-01-08T09:54:39.278Z,29.90
2018-01-08T09:57:08.998Z,29.80
2018-01-08T09:59:38.728Z,29.80
2018-01-08T10:02:09.723Z,29.70
2018-01-08T10:04:51.251Z,29.70
2018-01-08T10:07:32.032Z,29.60
2018-01-08T10:10:12.794Z,29.60
2018-01-08T10:12:53.618Z,29.50
2018-01-08T10:15:34.471Z,29.50
2018-01-08T10:18:15.406Z,29.40
2018-01-08T10:20:45.191Z,29.40
2018-01-08T10:23:15.609Z,29.30
2018-01-08T10:25:46.562Z,29.30
2018-01-08T10:28:16.343Z,29.30
2018-01-08T10:30:46.113Z,29.20
2018-01-08T10:33:15.872Z,29.20
2018-01-08T10:35:45.667Z,29.10
2018-01-08T10:38:15.411Z,29.10
2018-01-08T10:40:45.780Z,29.10
2018-01-08T10:43:22.671Z,29.00
2018-01-08T10:45:58.467Z,29.00
2018-01-08T10:48:33.390Z,29.00
2018-01-08T10:51:08.267Z,29.00
2018-01-08T10:53:39.159Z,29.00
2018-01-08T10:56:09.315Z,28.90
2018-01-08T10:58:39.027Z,28.90
2018-01-08T11:01:14.098Z,28.90
2018-01-08T11:03:48.997Z,28.80
2018-01-08T11:06:19.707Z,28.80
2018-01-08T11:08:49.742Z,28.70
2018-01-08T11:11:19.495Z,28.70
2018-01-08T11:13:49.242Z,28.60
2018-01-08T11:16:19.026Z,28.60
2018-01-08T11:18:48.767Z,28.50
2018-01-08T11:21:18.525Z,28.40
2018-01-08T11:23:48.574Z,28.40
2018-01-08T11:26:18.299Z,28.00
2018-01-08T11:28:48.042Z,28.30
2018-01-08T11:31:18.527Z,28.20
2018-01-08T11:33:48.303Z,28.20
2018-01-08T11:36:18.262Z,28.20
2018-01-08T11:38:48.092Z,28.10
2018-01-08T11:41:17.861Z,28.10
2018-01-08T11:43:47.641Z,28.10
2018-01-08T11:46:18.166Z,28.00
2018-01-08T11:48:48.715Z,28.00
2018-01-08T11:51:18.456Z,28.00
2018-01-08T11:53:49.027Z,28.00
2018-01-08T11:56:18.802Z,28.00
2018-01-08T11:58:48.543Z,27.90
2018-01-08T12:01:18.448Z,27.90
2018-01-08T12:03:48.299Z,27.90
2018-01-08T12:06:18.795Z,27.80
2018-01-08T12:08:49.355Z,27.80
2018-01-08T12:11:19.174Z,26.90
2018-01-08T12:13:48.903Z,27.70
2018-01-08T12:16:18.987Z,27.70
2018-01-08T12:18:49.513Z,27.70
2018-01-08T12:21:20.047Z,27.60
2018-01-08T12:23:50.566Z,27.60
2018-01-08T12:26:20.403Z,27.60
2018-01-08T12:28:50.130Z,27.60
2018-01-08T12:31:22.265Z,27.50
2018-01-08T12:33:52.780Z,27.50
2018-01-08T12:36:22.616Z,27.50
2018-01-08T12:38:52.347Z,27.50
2018-01-08T12:41:22.590Z,27.50
2018-01-08T12:43:52.346Z,26.70
2018-01-08T12:46:22.896Z,27.30
2018-01-08T12:48:52.611Z,27.30
2018-01-08T12:51:22.375Z,27.30
2018-01-08T12:53:52.125Z,27.30
2018-01-08T12:56:21.871Z,27.30
2018-01-08T12:58:51.613Z,27.30
2018-01-08T13:01:21.987Z,27.30
2018-01-08T13:03:51.782Z,27.30
2018-01-08T13:06:21.547Z,27.30
2018-01-08T13:08:51.323Z,27.30
2018-01-08T13:11:21.076Z,27.30
2018-01-08T13:13:50.824Z,27.30
2018-01-08T13:16:21.299Z,27.30
2018-01-08T13:18:51.066Z,27.30
2018-01-08T13:21:20.838Z,27.20
2018-01-08T13:23:50.584Z,27.20
2018-01-08T13:26:20.979Z,27.20
2018-01-08T13:28:50.703Z,27.20
2018-01-08T13:31:21.219Z,27.20
2018-01-08T13:33:51.764Z,27.20
2018-01-08T13:36:23.196Z,27.20
2018-01-08T13:38:54.004Z,27.20
2018-01-08T13:41:23.834Z,27.10
2018-01-08T13:43:53.569Z,27.20
2018-01-08T13:46:24.088Z,27.20
2018-01-08T13:48:54.654Z,27.20
2018-01-08T13:51:24.765Z,27.20
2018-01-08T13:53:54.526Z,27.10
2018-01-08T13:56:24.628Z,27.20
2018-01-08T13:59:04.383Z,27.20
2018-01-08T14:01:34.154Z,27.20
2018-01-08T14:04:04.330Z,27.20
2018-01-08T14:06:34.104Z,27.20
2018-01-08T14:09:03.987Z,27.20
2018-01-08T14:11:34.531Z,27.10
2018-01-08T14:14:04.302Z,27.10
2018-01-08T14:16:35.467Z,27.00
2018-01-08T14:19:06.198Z,27.00
2018-01-08T14:21:36.760Z,26.90
2018-01-08T14:24:06.515Z,26.90
2018-01-08T14:26:36.971Z,26.90
2018-01-08T14:29:07.548Z,26.70
2018-01-08T14:31:37.472Z,26.70
2018-01-08T14:34:07.263Z,26.60
2018-01-08T14:36:37.042Z,26.60
2018-01-08T14:39:07.027Z,26.50
2018-01-08T14:41:36.791Z,26.50
2018-01-08T14:44:06.547Z,26.40
2018-01-08T14:46:36.312Z,26.30
2018-01-08T14:49:06.103Z,26.30
2018-01-08T14:51:35.852Z,26.20
2018-01-08T14:54:05.613Z,26.20
2018-01-08T14:56:36.123Z,26.20
2018-01-08T14:59:05.920Z,26.10
2018-01-08T15:01:35.683Z,26.20
2018-01-08T15:04:05.532Z,26.20
2018-01-08T15:06:35.243Z,26.20
2018-01-08T15:09:05.232Z,26.20
2018-01-08T15:11:36.220Z,26.10
2018-01-08T15:14:05.971Z,26.10
2018-01-08T15:16:35.778Z,26.10
2018-01-08T15:19:06.364Z,26.00
2018-01-08T15:21:36.125Z,26.00
2018-01-08T15:24:06.004Z,26.00
2018-01-08T15:26:35.718Z,26.00
2018-01-08T15:29:06.269Z,26.10
2018-01-08T15:31:36.039Z,26.10
2018-01-08T15:34:07.911Z,26.10
2018-01-08T15:36:37.779Z,26.10
2018-01-08T15:39:07.509Z,26.10
2018-01-08T15:41:37.294Z,26.10
2018-01-08T15:44:10.864Z,26.00
2018-01-08T15:46:41.888Z,26.00
2018-01-08T15:49:11.651Z,26.10
2018-01-08T15:51:41.394Z,26.00
2018-01-08T15:54:11.151Z,26.10
2018-01-08T15:56:40.911Z,26.00
2018-01-08T15:59:10.651Z,26.10
2018-01-08T16:01:41.131Z,26.10
2018-01-08T16:04:10.933Z,26.10
2018-01-08T16:06:40.659Z,26.10
2018-01-08T16:09:10.519Z,26.20
2018-01-08T16:11:40.338Z,26.20
2018-01-08T16:14:10.092Z,26.20
2018-01-08T16:16:39.833Z,26.20
2018-01-08T16:19:09.579Z,26.30
2018-01-08T16:21:39.331Z,26.30
2018-01-08T16:24:09.096Z,26.30
2018-01-08T16:26:38.976Z,26.40
2018-01-08T16:29:08.691Z,26.40
2018-01-08T16:31:39.064Z,26.40
2018-01-08T16:34:08.824Z,26.30
2018-01-08T16:36:39.313Z,26.30
2018-01-08T16:39:09.111Z,26.30
2018-01-08T16:41:39.747Z,26.20
2018-01-08T16:44:09.524Z,26.20
2018-01-08T16:46:40.053Z,26.10
2018-01-08T16:49:10.535Z,26.10
2018-01-08T16:51:40.279Z,26.10
2018-01-08T16:54:10.015Z,26.00
2018-01-08T16:56:39.747Z,26.00
2018-01-08T16:59:10.180Z,26.00
2018-01-08T17:01:39.962Z,26.00
2018-01-08T17:04:09.718Z,26.00
2018-01-08T17:06:40.026Z,26.00
2018-01-08T17:09:10.591Z,26.20
2018-01-08T17:11:40.363Z,26.20
2018-01-08T17:14:10.112Z,26.20
2018-01-08T17:16:39.878Z,26.30
2018-01-08T17:19:09.914Z,26.30
2018-01-08T17:21:39.725Z,26.30
2018-01-08T17:24:09.483Z,26.30
2018-01-08T17:26:40.027Z,26.30
2018-01-08T17:29:10.263Z,26.30
2018-01-08T17:31:40.032Z,26.30
2018-01-08T17:34:09.786Z,26.20
2018-01-08T17:36:39.507Z,26.20
2018-01-08T17:39:09.272Z,26.20
2018-01-08T17:41:39.759Z,26.20
2018-01-08T17:44:10.344Z,26.20
2018-01-08T17:46:40.890Z,26.00
2018-01-08T17:49:10.674Z,26.00
2018-01-08T17:51:41.206Z,25.90
2018-01-08T17:54:11.715Z,25.90
2018-01-08T17:56:41.470Z,25.90
2018-01-08T17:59:11.239Z,25.90
2018-01-08T18:01:41.743Z,25.80
2018-01-08T18:04:11.619Z,25.80
2018-01-08T18:06:41.340Z,25.80
2018-01-08T18:09:11.195Z,25.80
2018-01-08T18:11:40.995Z,25.70
2018-01-08T18:14:10.769Z,25.70
2018-01-08T18:16:41.319Z,25.60
2018-01-08T18:19:11.043Z,25.60
2018-01-08T18:21:40.819Z,25.60
2018-01-08T18:24:11.552Z,25.50
2018-01-08T18:26:41.315Z,25.50
2018-01-08T18:29:11.047Z,25.50
2018-01-08T18:31:41.664Z,25.40
2018-01-08T18:34:11.425Z,25.40
2018-01-08T18:36:41.215Z,25.40
2018-01-08T18:39:10.955Z,25.30
2018-01-08T18:41:40.701Z,25.30
2018-01-08T18:44:11.050Z,25.20
2018-01-08T18:46:41.554Z,25.20
2018-01-08T18:49:11.280Z,25.10
2018-01-08T18:51:41.763Z,25.10
2018-01-08T18:54:11.504Z,25.10
2018-01-08T18:56:41.352Z,25.10
2018-01-08T18:59:11.112Z,25.10
2018-01-08T19:01:40.872Z,25.10
2018-01-08T19:04:10.616Z,25.10
2018-01-08T19:06:40.371Z,25.10
2018-01-08T19:09:10.990Z,25.00
2018-01-08T19:11:40.736Z,25.00
2018-01-08T19:14:10.446Z,25.00
2018-01-08T19:16:40.213Z,25.00
2018-01-08T19:19:09.955Z,25.00
2018-01-08T19:21:40.503Z,25.00
2018-01-08T19:24:10.224Z,25.00
2018-01-08T19:26:40.781Z,25.10
2018-01-08T19:29:10.507Z,25.00
2018-01-08T19:31:40.354Z,25.10
2018-01-08T19:34:10.087Z,25.20
2018-01-08T19:36:39.820Z,25.10
2018-01-08T19:39:10.375Z,25.10
2018-01-08T19:41:40.877Z,25.20
2018-01-08T19:44:10.670Z,25.10
2018-01-08T19:46:40.394Z,25.10
2018-01-08T19:49:10.128Z,25.10
2018-01-08T19:51:39.889Z,25.10
2018-01-08T19:54:09.676Z,25.00
2018-01-08T19:56:40.592Z,25.00
2018-01-08T19:59:10.329Z,25.00
2018-01-08T20:01:40.059Z,25.00
2018-01-08T20:04:09.772Z,25.00
2018-01-08T20:06:39.503Z,25.00
2018-01-08T20:09:09.250Z,25.00
2018-01-08T20:11:39.726Z,25.00
2018-01-08T20:14:09.602Z,25.00
2018-01-08T20:16:40.102Z,25.10
2018-01-08T20:19:09.814Z,25.10
2018-01-08T20:21:39.559Z,25.10
2018-01-08T20:24:09.317Z,25.20
2018-01-08T20:26:39.051Z,25.10
2018-01-08T20:29:08.839Z,25.10
2018-01-08T20:31:38.598Z,25.10
2018-01-08T20:34:09.074Z,25.20
2018-01-08T20:36:39.475Z,25.20
2018-01-08T20:39:09.291Z,25.20
2018-01-08T20:41:39.032Z,25.20
2018-01-08T20:44:08.761Z,25.30
2018-01-08T20:46:39.281Z,25.40
2018-01-08T20:49:09.064Z,25.40
2018-01-08T20:51:40.821Z,25.40
2018-01-08T20:54:10.577Z,25.40
2018-01-08T20:56:41.091Z,25.40
2018-01-08T20:59:10.824Z,25.40
2018-01-08T21:01:41.387Z,25.40
2018-01-08T21:04:11.143Z,25.40
2018-01-08T21:06:40.935Z,25.40
2018-01-08T21:09:10.722Z,25.40
2018-01-08T21:11:40.510Z,25.40
2018-01-08T21:14:10.320Z,25.40
2018-01-08T21:16:40.056Z,25.40
2018-01-08T21:19:10.576Z,25.40
2018-01-08T21:21:40.286Z,25.40
2018-01-08T21:24:10.049Z,25.40
2018-01-08T21:26:39.819Z,25.40
2018-01-08T21:29:09.547Z,25.40
2018-01-08T21:31:39.333Z,25.30
2018-01-08T21:34:09.084Z,25.30
2018-01-08T21:36:38.800Z,25.30
2018-01-08T21:39:08.544Z,25.20
2018-01-08T21:41:38.259Z,25.20
2018-01-08T21:44:08.031Z,25.30
2018-01-08T21:46:37.782Z,25.30
2018-01-08T21:49:07.573Z,25.40
2018-01-08T21:51:38.290Z,25.30
2018-01-08T21:54:08.112Z,25.30
2018-01-08T21:56:38.916Z,25.30
2018-01-08T21:59:08.642Z,25.30
2018-01-08T22:01:38.388Z,25.40
2018-01-08T22:04:08.163Z,25.30
2018-01-08T22:06:39.408Z,25.30
2018-01-08T22:09:09.146Z,25.40
2018-01-08T22:11:39.666Z,25.40
2018-01-08T22:14:10.199Z,25.50
2018-01-08T22:16:40.721Z,25.50
2018-01-08T22:19:11.264Z,25.60
2018-01-08T22:21:41.784Z,25.60
2018-01-08T22:24:12.271Z,25.60
2018-01-08T22:26:42.009Z,25.60
2018-01-08T22:29:12.572Z,25.70
2018-01-08T22:31:42.298Z,25.70
2018-01-08T22:34:12.039Z,25.70
2018-01-08T22:36:41.762Z,25.70
2018-01-08T22:39:11.534Z,25.70
2018-01-08T22:41:41.239Z,25.70
2018-01-08T22:44:10.983Z,25.70
2018-01-08T22:46:40.738Z,25.70
2018-01-08T22:49:10.467Z,25.70
2018-01-08T22:51:40.191Z,25.70
2018-01-08T22:54:09.963Z,25.70
2018-01-08T22:56:40.783Z,25.70
2018-01-08T22:59:11.275Z,25.70
2018-01-08T23:01:41.055Z,25.80
2018-01-08T23:04:10.778Z,25.80
2018-01-08T23:06:40.578Z,25.80
2018-01-08T23:09:10.359Z,25.80
2018-01-08T23:11:40.871Z,25.80
2018-01-08T23:14:10.651Z,25.80
2018-01-08T23:16:40.406Z,25.80
2018-01-08T23:19:10.923Z,25.80
2018-01-08T23:21:40.659Z,25.80
2018-01-08T23:24:10.396Z,25.80
2018-01-08T23:26:40.165Z,25.80
2018-01-08T23:29:10.654Z,25.80
2018-01-08T23:31:40.395Z,25.80
2018-01-08T23:34:10.131Z,25.80
2018-01-08T23:36:39.867Z,25.80
2018-01-08T23:39:09.614Z,25.80
2018-01-08T23:41:39.379Z,25.80
2018-01-08T23:44:09.139Z,25.80
2018-01-08T23:46:38.928Z,25.80
2018-01-08T23:49:08.702Z,25.90
2018-01-08T23:51:38.439Z,25.80
2018-01-08T23:54:08.413Z,25.90
2018-01-08T23:56:39.223Z,25.90
2018-01-08T23:59:09.000Z,25.90
